Wetterverlauf

Letzte Wetterlage 25.07.2014 17:54
Wetterdiagramm
Tabellarische Darstellung
Datum Temperatur Windchill Feuchte Luftdruck Windrichtung Windstärke Niederschlag
25.07.2014 17:54 23,9 °C 23,9 °C 68 % 1012,9 hPa 0 1.4 0,00 mm
25.07.2014 17:44 24,0 °C 23,4 °C 67 % 1013,0 hPa 338 2.4 0,00 mm
25.07.2014 17:34 23,9 °C 23,9 °C 68 % 1012,8 hPa 338 1.7 0,00 mm
25.07.2014 17:24 23,6 °C 22,4 °C 68 % 1012,9 hPa 0 3.1 0,00 mm
25.07.2014 17:14 24,1 °C 22,9 °C 66 % 1012,9 hPa 0 3.1 0,00 mm
25.07.2014 17:04 23,9 °C 23,0 °C 68 % 1013,2 hPa 225 2.7 0,00 mm
25.07.2014 16:54 23,9 °C 23,0 °C 69 % 1013,2 hPa 45 2.7 0,00 mm
25.07.2014 16:44 23,8 °C 22,9 °C 67 % 1013,3 hPa 45 2.7 0,00 mm
25.07.2014 16:34 24,0 °C 23,1 °C 66 % 1013,4 hPa 0 2.7 0,00 mm
25.07.2014 16:24 23,8 °C 23,8 °C 66 % 1013,5 hPa 0 1.4 0,00 mm
25.07.2014 16:14 23,6 °C 23,6 °C 66 % 1013,4 hPa 45 1.7 0,00 mm
25.07.2014 16:04 24,1 °C 22,5 °C 64 % 1013,5 hPa 45 3.7 0,00 mm
25.07.2014 15:54 24,4 °C 23,3 °C 65 % 1013,6 hPa 45 3.1 0,00 mm
25.07.2014 15:44 24,1 °C 23,5 °C 66 % 1013,4 hPa 0 2.4 0,00 mm
25.07.2014 15:34 23,5 °C 23,5 °C 68 % 1013,4 hPa 45 2.0 0,00 mm
25.07.2014 15:24 23,8 °C 21,7 °C 67 % 1013,5 hPa 0 4.4 0,00 mm
25.07.2014 15:14 23,8 °C 22,9 °C 65 % 1013,6 hPa 45 2.7 0,00 mm
25.07.2014 15:04 23,5 °C 22,6 °C 68 % 1013,6 hPa 45 2.7 0,00 mm
25.07.2014 14:54 23,5 °C 21,5 °C 69 % 1013,8 hPa 0 4.1 0,00 mm
25.07.2014 14:44 23,5 °C 23,5 °C 68 % 1013,7 hPa 45 1.7 0,00 mm
25.07.2014 14:34 22,8 °C 22,8 °C 70 % 1014,0 hPa 293 2.0 0,00 mm
25.07.2014 14:24 22,8 °C 21,8 °C 71 % 1013,8 hPa 0 2.7 0,00 mm
25.07.2014 14:14 23,0 °C 22,0 °C 69 % 1014,1 hPa 0 2.7 0,00 mm
25.07.2014 14:04 22,8 °C 22,8 °C 71 % 1014,0 hPa 315 1.4 0,00 mm
25.07.2014 13:54 22,6 °C 22,6 °C 71 % 1014,2 hPa 45 1.4 0,00 mm
Empfehlen Sie wetter.com
| Mehr
Neue Wetterwarnung

Neue Niederschlagsmeldung
Neue Meldung
Regen Liveticker
    sehr starker Regen/Gewitter
    starker Regen/Gewitter
    mäßiger bis starker Regen
    mäßiger Regen
    leichter bis mäßiger Regen
    kein Regen